Time;durP1;ratioP1;P1;durP2;ratioP2;P2;SDS_P1;SDS_P2;PMS_P1;PMS_P2;Temp;Humidity;BMP_temperature;BMP_pressure;BME280_temperature;BME280_humidity;BME280_pressure;Samples;Min_cycle;Max_cycle;Signal;HPM_P1;HPM_P2
2022/11/24 00:01:02;;;;;;;6.97;2.60;;;8.40;99.90;;;;;;4998734;28;20445;-77
2022/11/24 00:03:28;;;;;;;8.77;3.10;;;8.40;99.90;;;;;;4996807;28;20493;-77
2022/11/24 00:05:54;;;;;;;7.83;3.07;;;8.40;99.90;;;;;;4996648;28;20411;-77
2022/11/24 00:08:19;;;;;;;14.53;4.10;;;8.30;99.90;;;;;;4996149;28;20218;-77
2022/11/24 00:10:45;;;;;;;9.90;3.57;;;8.40;99.90;;;;;;4997181;28;20687;-77
2022/11/24 00:13:10;;;;;;;7.60;3.00;;;8.40;99.90;;;;;;4979493;28;20281;-77
2022/11/24 00:15:36;;;;;;;5.33;2.67;;;8.50;99.90;;;;;;4997296;28;20703;-77
2022/11/24 00:18:02;;;;;;;6.47;2.80;;;8.50;99.90;;;;;;4998759;28;20643;-76
2022/11/24 00:20:27;;;;;;;6.90;2.67;;;8.60;99.90;;;;;;4996204;28;20178;-77
2022/11/24 00:22:54;;;;;;;5.33;2.60;;;8.60;99.90;;;;;;4994843;28;20205;-76
2022/11/24 00:25:20;;;;;;;5.57;2.43;;;8.60;99.90;;;;;;4996190;28;20211;-77
2022/11/24 00:27:45;;;;;;;9.30;2.73;;;8.60;99.90;;;;;;4995842;28;20483;-76
2022/11/24 00:30:11;;;;;;;10.83;2.77;;;8.60;99.90;;;;;;4996067;28;20586;-76
2022/11/24 00:32:37;;;;;;;8.37;2.57;;;8.70;99.90;;;;;;4978328;28;20721;-77
2022/11/24 00:35:03;;;;;;;12.17;3.00;;;8.80;99.90;;;;;;4996226;28;20225;-76
2022/11/24 00:37:28;;;;;;;9.40;3.03;;;8.80;99.90;;;;;;4994556;28;20258;-77
2022/11/24 00:39:54;;;;;;;10.30;2.67;;;8.90;99.90;;;;;;4996533;28;20980;-77
2022/11/24 00:42:20;;;;;;;5.50;2.73;;;8.80;99.90;;;;;;4996664;28;20172;-77
2022/11/24 00:44:45;;;;;;;9.63;2.93;;;8.80;99.90;;;;;;4997191;28;20174;-76
2022/11/24 00:47:11;;;;;;;7.53;2.37;;;8.80;99.90;;;;;;4995773;28;20667;-76
2022/11/24 00:49:36;;;;;;;5.03;2.67;;;8.80;99.90;;;;;;4995735;28;20640;-77
2022/11/24 00:52:02;;;;;;;5.33;2.30;;;8.80;99.90;;;;;;4995502;28;20214;-76
2022/11/24 00:54:28;;;;;;;12.53;3.20;;;8.70;99.90;;;;;;4994958;28;20184;-77
2022/11/24 00:56:53;;;;;;;5.00;2.30;;;8.80;99.90;;;;;;4995228;28;20255;-76
2022/11/24 00:59:19;;;;;;;6.20;2.50;;;8.70;99.90;;;;;;4994515;28;20185;-77
2022/11/24 01:01:45;;;;;;;9.47;2.80;;;8.60;99.90;;;;;;4995816;28;20192;-77
2022/11/24 01:04:10;;;;;;;7.93;2.60;;;8.50;99.90;;;;;;4996095;28;20194;-77
2022/11/24 01:06:36;;;;;;;8.30;2.50;;;8.50;99.90;;;;;;4995593;28;20278;-76
2022/11/24 01:09:02;;;;;;;13.53;3.07;;;8.40;99.90;;;;;;4995472;28;20175;-77
2022/11/24 01:11:59;;;;;;;5.90;2.30;;;8.40;99.90;;;;;;4995343;28;20172;-77
2022/11/24 01:14:15;;;;;;;10.60;3.27;;;8.30;99.90;;;;;;4994580;28;20455;-77
2022/11/24 01:16:41;;;;;;;14.83;3.37;;;8.50;99.90;;;;;;4995727;28;20415;-77
2022/11/24 01:19:06;;;;;;;6.23;2.50;;;8.50;99.90;;;;;;4995456;28;20198;-77
2022/11/24 01:21:32;;;;;;;10.93;2.93;;;8.50;99.90;;;;;;4995522;28;20168;-76
2022/11/24 01:23:57;;;;;;;8.57;2.70;;;8.50;99.90;;;;;;4994847;28;20683;-76
2022/11/24 01:26:23;;;;;;;9.30;2.63;;;8.40;99.90;;;;;;4994959;28;20210;-76
2022/11/24 01:28:56;;;;;;;9.60;2.57;;;8.30;99.90;;;;;;4994170;28;20181;-76
2022/11/24 01:31:23;;;;;;;3.20;1.77;;;8.40;99.90;;;;;;4994479;28;20171;-77
2022/11/24 01:33:49;;;;;;;6.53;2.80;;;8.40;99.90;;;;;;4994424;28;20481;-76
2022/11/24 01:36:14;;;;;;;10.30;3.07;;;8.40;99.90;;;;;;4994425;28;20425;-76
2022/11/24 01:38:40;;;;;;;10.50;3.70;;;8.40;99.90;;;;;;4994563;28;20525;-76
2022/11/24 01:41:07;;;;;;;8.43;2.80;;;8.50;99.90;;;;;;4994447;28;20177;-76
2022/11/24 01:43:35;;;;;;;5.50;2.60;;;8.60;99.90;;;;;;4994562;28;20199;-77
2022/11/24 01:46:24;;;;;;;5.60;2.80;;;8.70;99.90;;;;;;4995288;28;20502;-77
2022/11/24 01:49:12;;;;;;;9.40;2.60;;;8.80;99.90;;;;;;4981569;28;20415;-77
2022/11/24 01:51:50;;;;;;;6.57;2.97;;;8.80;99.90;;;;;;4994889;28;20914;-76
2022/11/24 01:54:21;;;;;;;5.87;2.17;;;8.90;99.90;;;;;;4993338;28;20799;-76
2022/11/24 01:56:51;;;;;;;4.13;2.50;;;8.90;99.90;;;;;;4977603;28;20430;-77
2022/11/24 01:59:19;;;;;;;6.97;2.40;;;9.00;99.90;;;;;;4992971;28;20443;-76
2022/11/24 02:01:47;;;;;;;6.80;2.00;;;9.20;99.90;;;;;;4994130;28;20399;-77
2022/11/24 02:04:16;;;;;;;10.53;1.90;;;9.20;99.90;;;;;;4994433;28;20551;-77
2022/11/24 02:06:44;;;;;;;5.53;2.30;;;9.30;99.90;;;;;;4993968;28;20827;-75
2022/11/24 02:09:24;;;;;;;6.90;2.00;;;9.40;99.90;;;;;;4993526;28;20428;-77
2022/11/24 02:11:52;;;;;;;5.57;2.30;;;9.40;99.90;;;;;;4989887;28;20412;-77
2022/11/24 02:14:18;;;;;;;6.80;2.50;;;9.40;99.90;;;;;;4992174;28;20595;-76
2022/11/24 02:16:48;;;;;;;5.33;1.93;;;9.30;99.90;;;;;;4993344;28;20404;-76
2022/11/24 02:19:39;;;;;;;9.80;2.50;;;9.30;99.90;;;;;;4994208;28;20408;-77
2022/11/24 02:22:40;;;;;;;4.93;1.80;;;9.40;99.90;;;;;;4994602;28;20416;-77
2022/11/24 02:25:14;;;;;;;6.50;2.27;;;9.50;99.90;;;;;;4965673;28;20816;-77
2022/11/24 02:27:43;;;;;;;6.17;2.10;;;9.40;99.90;;;;;;4975974;28;20442;-77
2022/11/24 02:30:09;;;;;;;11.13;2.27;;;9.30;99.90;;;;;;4993756;28;20529;-77
2022/11/24 02:32:37;;;;;;;8.73;2.90;;;9.20;99.90;;;;;;4993928;28;20418;-77
2022/11/24 02:35:05;;;;;;;6.27;2.23;;;9.20;99.90;;;;;;4991507;28;20795;-77
2022/11/24 02:37:31;;;;;;;4.67;1.77;;;9.10;99.90;;;;;;4992300;28;20431;-77
2022/11/24 02:39:56;;;;;;;5.40;2.23;;;9.20;99.90;;;;;;4977395;28;20443;-77
2022/11/24 02:42:24;;;;;;;6.30;2.20;;;9.20;99.90;;;;;;4974238;28;20172;-77
2022/11/24 02:44:54;;;;;;;9.30;1.90;;;9.20;99.90;;;;;;4982564;28;20640;-77
2022/11/24 02:47:19;;;;;;;4.90;2.27;;;9.10;99.90;;;;;;4994190;28;20458;-77
2022/11/24 02:49:45;;;;;;;6.37;2.00;;;9.10;99.90;;;;;;4993783;28;20404;-77
2022/11/24 02:52:11;;;;;;;6.60;2.00;;;9.10;99.90;;;;;;4993157;28;20325;-77
2022/11/24 02:54:36;;;;;;;5.20;1.60;;;9.20;99.90;;;;;;4992962;28;20260;-77
2022/11/24 02:57:02;;;;;;;6.10;2.10;;;9.10;99.90;;;;;;4992742;28;20171;-77
2022/11/24 02:59:27;;;;;;;4.97;1.67;;;9.00;99.90;;;;;;4992320;28;20252;-77
2022/11/24 03:01:53;;;;;;;6.47;2.10;;;8.90;99.90;;;;;;4991345;28;20176;-75
2022/11/24 03:04:19;;;;;;;4.97;1.70;;;8.70;99.90;;;;;;4992544;28;20183;-77
2022/11/24 03:06:44;;;;;;;4.70;1.80;;;8.70;99.90;;;;;;4996435;28;20298;-77
2022/11/24 03:09:10;;;;;;;6.10;2.17;;;8.70;99.90;;;;;;4979006;28;20230;-77
2022/11/24 03:11:36;;;;;;;3.17;1.87;;;8.60;99.90;;;;;;4996794;28;20174;-76
2022/11/24 03:14:02;;;;;;;5.70;1.80;;;8.50;99.90;;;;;;4996621;28;20558;-77
2022/11/24 03:16:28;;;;;;;4.27;1.87;;;8.40;99.90;;;;;;4995719;28;20414;-76
2022/11/24 03:18:54;;;;;;;4.60;1.87;;;8.40;99.90;;;;;;4979092;28;20411;-77
2022/11/24 03:21:19;;;;;;;3.60;1.70;;;8.50;99.90;;;;;;4978998;28;20176;-75
2022/11/24 03:23:45;;;;;;;3.07;1.83;;;8.50;99.90;;;;;;4979092;28;20623;-76
2022/11/24 03:26:14;;;;;;;4.33;2.10;;;8.40;99.90;;;;;;4996591;28;20200;-77
2022/11/24 03:28:40;;;;;;;3.43;1.63;;;8.40;99.90;;;;;;4979991;28;20429;-77
2022/11/24 03:31:07;;;;;;;2.93;1.70;;;8.40;99.90;;;;;;4997702;28;20417;-77
2022/11/24 03:33:33;;;;;;;6.20;2.00;;;8.40;99.90;;;;;;4998183;28;20574;-77
2022/11/24 03:35:59;;;;;;;5.73;1.73;;;8.40;99.90;;;;;;4998106;28;20434;-77
2022/11/24 03:38:24;;;;;;;5.10;1.70;;;8.30;99.90;;;;;;4998259;28;20416;-77
2022/11/24 03:40:50;;;;;;;5.30;1.70;;;8.30;99.90;;;;;;4998436;28;20165;-77
2022/11/24 03:43:16;;;;;;;4.93;2.07;;;8.20;99.90;;;;;;4996390;28;20185;-77
2022/11/24 03:45:45;;;;;;;4.97;1.50;;;8.30;99.90;;;;;;4995623;28;20163;-77
2022/11/24 03:48:10;;;;;;;10.73;2.23;;;8.20;99.90;;;;;;4996221;28;20204;-77
2022/11/24 03:50:36;;;;;;;6.00;2.00;;;8.10;99.90;;;;;;4996734;28;20821;-77
2022/11/24 03:53:02;;;;;;;5.93;1.80;;;8.10;99.90;;;;;;4996266;28;20687;-76
2022/11/24 03:55:28;;;;;;;9.97;1.90;;;8.10;99.90;;;;;;4995967;28;20182;-76
2022/11/24 03:57:53;;;;;;;6.07;2.20;;;8.00;99.90;;;;;;4994603;28;20417;-77
2022/11/24 04:00:19;;;;;;;8.30;1.90;;;8.10;99.90;;;;;;4994710;28;20208;-78
2022/11/24 04:02:44;;;;;;;5.03;1.77;;;8.10;99.90;;;;;;4998765;28;20215;-76
2022/11/24 04:05:10;;;;;;;5.93;2.33;;;8.20;99.90;;;;;;4999441;28;20175;-77
2022/11/24 04:07:36;;;;;;;4.30;2.10;;;8.20;99.90;;;;;;4996702;28;20194;-77
2022/11/24 04:10:02;;;;;;;5.23;2.20;;;8.30;99.90;;;;;;5001476;28;20191;-77
2022/11/24 04:12:42;;;;;;;10.77;2.50;;;8.30;99.90;;;;;;5001477;28;20251;-77
2022/11/24 04:15:09;;;;;;;4.23;1.80;;;8.20;99.90;;;;;;5001781;28;20422;-76
2022/11/24 04:17:34;;;;;;;3.93;2.27;;;8.30;99.90;;;;;;5000152;28;20469;-77
2022/11/24 04:20:00;;;;;;;7.13;2.30;;;8.40;99.90;;;;;;5002705;28;20411;-77
2022/11/24 04:22:25;;;;;;;5.47;1.50;;;8.30;99.90;;;;;;5001861;28;20582;-77
2022/11/24 04:24:51;;;;;;;6.00;2.03;;;8.30;99.90;;;;;;4983106;28;20175;-77
2022/11/24 04:27:17;;;;;;;4.23;2.10;;;8.20;99.90;;;;;;4983027;28;20770;-77
2022/11/24 04:29:42;;;;;;;5.33;2.00;;;8.10;99.90;;;;;;5000984;28;20210;-75
2022/11/24 04:32:08;;;;;;;7.57;1.83;;;8.00;99.90;;;;;;4997657;28;20180;-76
2022/11/24 04:34:34;;;;;;;3.63;2.20;;;8.00;99.90;;;;;;4995417;28;20291;-77
2022/11/24 04:37:00;;;;;;;4.63;2.37;;;8.10;99.90;;;;;;4995116;28;20249;-76
2022/11/24 04:39:26;;;;;;;4.83;2.00;;;8.20;99.90;;;;;;4998798;28;20422;-77
2022/11/24 04:41:51;;;;;;;6.13;2.30;;;8.30;99.90;;;;;;5002416;28;20186;-77
2022/11/24 04:44:17;;;;;;;4.57;1.70;;;8.30;99.90;;;;;;5002900;28;20242;-77
2022/11/24 04:46:42;;;;;;;3.73;1.60;;;8.30;99.90;;;;;;5001287;28;20686;-77
2022/11/24 04:49:11;;;;;;;8.10;2.20;;;8.30;99.90;;;;;;4996468;28;20182;-76
2022/11/24 04:51:41;;;;;;;6.73;2.43;;;8.20;99.90;;;;;;4995313;28;20175;-76
2022/11/24 04:54:09;;;;;;;7.83;2.00;;;8.30;99.90;;;;;;4995224;28;20431;-76
2022/11/24 04:56:35;;;;;;;20.93;3.73;;;8.40;99.90;;;;;;4995151;28;20421;-76
2022/11/24 04:59:01;;;;;;;9.07;2.87;;;8.40;99.90;;;;;;4994799;28;20406;-77
2022/11/24 05:01:26;;;;;;;3.17;2.03;;;8.40;99.90;;;;;;4993818;28;20537;-77
2022/11/24 05:03:53;;;;;;;9.27;2.43;;;8.30;99.90;;;;;;4994611;28;20707;-77
2022/11/24 05:06:19;;;;;;;5.00;2.57;;;8.20;99.90;;;;;;4994867;28;20209;-77
2022/11/24 05:08:49;;;;;;;9.33;2.77;;;8.20;99.90;;;;;;4995084;28;20405;-76
2022/11/24 05:11:15;;;;;;;7.00;2.57;;;8.10;99.90;;;;;;4995306;28;20497;-77
2022/11/24 05:13:41;;;;;;;5.80;2.27;;;8.10;99.90;;;;;;4994877;28;20501;-77
2022/11/24 05:16:07;;;;;;;3.00;1.73;;;8.10;99.90;;;;;;4995229;28;20414;-77
2022/11/24 05:18:33;;;;;;;14.30;3.20;;;8.10;99.90;;;;;;4977729;28;20224;-76
2022/11/24 05:20:58;;;;;;;5.40;2.20;;;8.10;99.90;;;;;;4995401;28;20405;-76
2022/11/24 05:23:24;;;;;;;4.57;2.30;;;8.10;99.90;;;;;;4994757;28;20190;-76
2022/11/24 05:25:50;;;;;;;7.17;2.33;;;8.10;99.90;;;;;;4993980;28;20169;-77
2022/11/24 05:28:17;;;;;;;7.03;2.83;;;8.10;99.90;;;;;;4993917;28;20949;-77
2022/11/24 05:30:43;;;;;;;4.90;2.23;;;8.10;99.90;;;;;;4993042;28;20789;-76
2022/11/24 05:33:17;;;;;;;2.97;2.33;;;8.10;99.90;;;;;;4996490;28;20537;-76
2022/11/24 05:35:47;;;;;;;5.00;2.77;;;8.00;99.90;;;;;;4998077;28;20431;-77
2022/11/24 05:38:14;;;;;;;6.87;2.67;;;8.00;99.90;;;;;;4995211;28;20470;-77
2022/11/24 05:40:40;;;;;;;5.37;2.10;;;8.00;99.90;;;;;;4993975;28;20822;-77
2022/11/24 05:43:14;;;;;;;7.40;3.00;;;8.10;99.90;;;;;;4995510;28;20422;-76
2022/11/24 05:45:40;;;;;;;7.27;2.93;;;8.10;99.90;;;;;;4996231;28;20406;-77
2022/11/24 05:48:14;;;;;;;4.40;2.57;;;8.20;99.90;;;;;;4976269;28;20504;-76
2022/11/24 05:50:40;;;;;;;17.40;8.10;;;8.20;99.90;;;;;;4994472;28;20412;-76
2022/11/24 05:53:08;;;;;;;7.67;2.90;;;8.10;99.90;;;;;;4994255;28;20441;-76
2022/11/24 05:55:34;;;;;;;9.43;2.63;;;8.00;99.90;;;;;;4994226;28;20161;-77
2022/11/24 05:58:01;;;;;;;4.60;2.30;;;8.10;99.90;;;;;;4993759;28;20924;-77
2022/11/24 06:00:28;;;;;;;4.83;2.07;;;8.20;99.90;;;;;;4994293;28;20176;-76
2022/11/24 06:02:55;;;;;;;8.07;3.50;;;8.30;99.90;;;;;;4992690;28;20757;-77
2022/11/24 06:05:21;;;;;;;8.93;2.77;;;8.30;99.90;;;;;;4993588;28;20408;-77
2022/11/24 06:07:46;;;;;;;4.93;2.00;;;8.30;99.90;;;;;;4993458;28;20481;-77
2022/11/24 06:10:13;;;;;;;7.53;2.50;;;8.40;99.90;;;;;;4993075;28;20173;-76
2022/11/24 06:12:38;;;;;;;6.27;2.70;;;8.40;99.90;;;;;;4994488;28;20192;-76
2022/11/24 06:15:05;;;;;;;6.50;1.80;;;8.50;99.90;;;;;;4994903;28;20568;-76
2022/11/24 06:17:30;;;;;;;13.73;3.23;;;8.40;99.90;;;;;;4994774;28;20580;-76
2022/11/24 06:19:56;;;;;;;5.70;2.90;;;8.40;99.90;;;;;;4995974;28;20423;-76
2022/11/24 06:22:21;;;;;;;7.43;2.10;;;8.40;99.90;;;;;;4999700;28;20170;-77
2022/11/24 06:24:49;;;;;;;7.87;2.90;;;8.50;99.90;;;;;;5000798;28;20273;-77
2022/11/24 06:27:14;;;;;;;4.10;2.10;;;8.50;99.90;;;;;;4995269;28;20194;-77
2022/11/24 06:29:40;;;;;;;6.83;2.83;;;8.40;99.90;;;;;;4994264;28;20425;-77
2022/11/24 06:32:06;;;;;;;8.50;3.20;;;8.50;99.90;;;;;;4987676;28;20594;-77
2022/11/24 06:34:31;;;;;;;6.07;2.50;;;8.50;99.90;;;;;;4975198;28;20278;-78
2022/11/24 06:36:57;;;;;;;6.80;2.90;;;8.50;99.90;;;;;;4973155;28;20196;-77
2022/11/24 06:39:23;;;;;;;6.67;2.97;;;8.50;99.90;;;;;;4973610;28;20185;-77
2022/11/24 06:41:52;;;;;;;11.73;3.43;;;8.60;99.90;;;;;;4972814;28;20211;-77
2022/11/24 06:44:18;;;;;;;5.47;3.00;;;8.60;99.90;;;;;;4972513;28;20219;-77
2022/11/24 06:46:44;;;;;;;10.03;3.07;;;8.60;99.90;;;;;;4974554;28;20998;-76
2022/11/24 06:49:09;;;;;;;6.00;2.50;;;8.50;99.90;;;;;;4973616;28;20398;-77
2022/11/24 06:51:35;;;;;;;6.30;2.47;;;8.60;99.90;;;;;;4974535;28;20408;-76
2022/11/24 06:54:04;;;;;;;7.50;2.80;;;8.70;99.90;;;;;;4974609;28;20707;-76
2022/11/24 06:56:30;;;;;;;9.70;3.00;;;8.80;99.90;;;;;;4974452;28;20166;-75
2022/11/24 06:58:55;;;;;;;10.40;3.10;;;8.90;99.90;;;;;;4986355;28;20971;-76
2022/11/24 07:01:24;;;;;;;33.23;22.63;;;9.00;99.90;;;;;;4994032;28;20193;-75
2022/11/24 07:03:51;;;;;;;7.30;2.80;;;9.10;99.90;;;;;;4992797;28;20200;-76
2022/11/24 07:06:18;;;;;;;13.13;3.33;;;9.10;99.90;;;;;;4993056;28;20763;-76
2022/11/24 07:08:44;;;;;;;7.37;3.00;;;9.10;99.90;;;;;;4993148;28;20400;-76
2022/11/24 07:11:14;;;;;;;8.20;2.80;;;9.10;99.90;;;;;;4993240;28;20961;-75
2022/11/24 07:13:43;;;;;;;8.13;2.47;;;9.20;99.90;;;;;;4992428;28;20420;-75
2022/11/24 07:16:21;;;;;;;9.83;3.40;;;9.10;99.90;;;;;;4993186;28;20409;-75
2022/11/24 07:18:47;;;;;;;7.23;3.27;;;9.20;99.90;;;;;;4992938;28;20465;-75
2022/11/24 07:21:13;;;;;;;9.70;3.30;;;9.20;99.90;;;;;;4992452;28;20427;-75
2022/11/24 07:23:39;;;;;;;7.20;3.13;;;9.30;99.90;;;;;;4995858;28;20427;-75
2022/11/24 07:26:06;;;;;;;7.90;2.97;;;9.40;99.90;;;;;;4994199;28;20251;-76
2022/11/24 07:28:35;;;;;;;8.87;3.10;;;9.40;99.90;;;;;;4993358;28;20173;-75
2022/11/24 07:31:06;;;;;;;6.37;3.10;;;9.50;99.90;;;;;;4993091;28;20403;-76
2022/11/24 07:33:31;;;;;;;5.87;2.70;;;9.50;99.90;;;;;;4992732;28;20439;-74
2022/11/24 07:35:58;;;;;;;7.40;3.07;;;9.60;99.90;;;;;;4992635;28;20427;-74
2022/11/24 07:38:24;;;;;;;6.43;2.77;;;9.50;99.90;;;;;;4993297;28;20179;-74
2022/11/24 07:40:50;;;;;;;6.17;2.37;;;9.50;99.90;;;;;;4992967;28;20406;-73
2022/11/24 07:43:15;;;;;;;8.73;2.67;;;9.60;99.90;;;;;;4992836;28;20195;-74
2022/11/24 07:45:41;;;;;;;11.97;2.93;;;9.50;99.90;;;;;;4992736;28;20538;-73
2022/11/24 07:48:06;;;;;;;8.07;3.10;;;9.40;99.90;;;;;;4992601;28;20200;-74
2022/11/24 07:50:32;;;;;;;9.00;3.50;;;9.40;99.90;;;;;;4992595;28;20548;-74
2022/11/24 07:53:03;;;;;;;7.70;3.07;;;9.40;99.90;;;;;;4994690;28;20230;-74
2022/11/24 07:55:29;;;;;;;8.33;3.03;;;9.20;99.90;;;;;;4996343;28;20173;-74
2022/11/24 07:57:58;;;;;;;8.87;3.07;;;9.30;99.90;;;;;;4995988;28;20827;-74
2022/11/24 08:00:24;;;;;;;10.50;3.20;;;9.20;99.90;;;;;;5000626;28;20262;-74
2022/11/24 08:02:49;;;;;;;8.63;2.90;;;9.20;99.90;;;;;;4997086;28;20447;-74
2022/11/24 08:05:15;;;;;;;10.40;3.30;;;9.40;99.90;;;;;;4997461;28;20166;-74
2022/11/24 08:07:40;;;;;;;7.77;3.40;;;9.40;99.90;;;;;;4996268;28;20216;-73
2022/11/24 08:10:06;;;;;;;10.37;3.10;;;9.40;99.90;;;;;;4995985;28;20534;-74
2022/11/24 08:12:32;;;;;;;10.90;3.50;;;9.50;99.90;;;;;;4993367;28;20173;-74
2022/11/24 08:14:57;;;;;;;4.70;2.40;;;9.60;99.90;;;;;;4993225;28;20474;-74
2022/11/24 08:17:24;;;;;;;6.30;2.50;;;9.80;99.90;;;;;;4994808;28;20321;-74
2022/11/24 08:19:49;;;;;;;8.30;2.43;;;9.70;99.90;;;;;;4994610;28;20667;-75
2022/11/24 08:22:15;;;;;;;3.60;1.70;;;9.60;99.90;;;;;;4995389;28;20444;-75
2022/11/24 08:24:45;;;;;;;4.37;2.23;;;9.60;99.90;;;;;;4994228;28;20266;-76
2022/11/24 08:27:12;;;;;;;7.57;2.10;;;9.60;99.90;;;;;;4978316;28;20576;-75
2022/11/24 08:29:38;;;;;;;5.67;2.00;;;9.70;99.90;;;;;;4996070;28;20412;-76
2022/11/24 08:32:04;;;;;;;4.80;1.43;;;9.70;99.90;;;;;;4997891;28;20432;-75
2022/11/24 08:34:29;;;;;;;5.10;1.87;;;9.60;99.90;;;;;;4995025;28;20189;-75
2022/11/24 08:36:55;;;;;;;3.13;1.40;;;9.70;99.90;;;;;;4995799;28;20185;-75
2022/11/24 08:39:21;;;;;;;5.40;1.30;;;9.60;99.90;;;;;;4995331;28;20200;-76
2022/11/24 08:41:46;;;;;;;4.33;1.30;;;9.60;99.90;;;;;;4995330;28;20269;-77
2022/11/24 08:44:14;;;;;;;4.40;2.13;;;9.70;99.90;;;;;;4995159;28;20220;-75
2022/11/24 08:46:40;;;;;;;4.23;1.33;;;9.80;99.90;;;;;;4994653;28;20615;-74
2022/11/24 08:49:06;;;;;;;4.70;1.60;;;9.70;99.90;;;;;;4995159;28;20411;-74
2022/11/24 08:51:32;;;;;;;1.40;1.17;;;9.60;99.90;;;;;;4994878;28;20544;-75
2022/11/24 08:54:00;;;;;;;5.13;1.40;;;9.30;99.90;;;;;;4994716;28;20424;-73
2022/11/24 08:56:31;;;;;;;1.90;1.37;;;9.10;99.90;;;;;;4994680;28;20211;-75
2022/11/24 08:58:57;;;;;;;2.43;0.93;;;9.20;99.90;;;;;;4995648;28;20888;-76
2022/11/24 09:01:23;;;;;;;1.83;0.80;;;9.30;99.90;;;;;;4995683;28;20815;-74
2022/11/24 09:03:49;;;;;;;1.33;0.80;;;9.50;99.90;;;;;;4993339;28;20456;-73
2022/11/24 09:06:23;;;;;;;1.70;1.13;;;9.40;99.90;;;;;;4995161;28;20457;-78
2022/11/24 09:08:50;;;;;;;1.50;1.17;;;9.40;99.90;;;;;;4995624;28;20782;-75
2022/11/24 09:11:16;;;;;;;1.83;1.10;;;9.60;99.90;;;;;;4995791;28;20405;-75
2022/11/24 09:13:42;;;;;;;2.63;1.13;;;9.60;99.90;;;;;;4994786;28;20424;-75
2022/11/24 09:16:14;;;;;;;2.57;1.17;;;9.80;99.90;;;;;;4994187;28;20434;-75
2022/11/24 09:18:40;;;;;;;1.63;0.90;;;9.60;99.90;;;;;;4995238;28;20156;-75
2022/11/24 09:21:09;;;;;;;1.43;0.87;;;9.80;99.90;;;;;;4994906;28;20919;-75
2022/11/24 09:23:35;;;;;;;2.60;1.03;;;9.90;99.90;;;;;;4993431;28;20905;-74
2022/11/24 09:26:10;;;;;;;1.10;0.80;;;10.00;99.90;;;;;;4994107;28;20413;-73
2022/11/24 09:28:36;;;;;;;7.43;5.67;;;10.30;99.90;;;;;;4994796;28;20416;-74
2022/11/24 09:31:03;;;;;;;2.30;1.33;;;10.20;99.90;;;;;;4994319;28;20442;-76
2022/11/24 09:33:30;;;;;;;2.77;1.60;;;10.20;99.90;;;;;;4994005;28;20198;-75
2022/11/24 09:35:56;;;;;;;4.23;1.20;;;10.40;99.90;;;;;;4994323;28;20435;-74
2022/11/24 09:38:22;;;;;;;1.63;1.10;;;10.40;99.90;;;;;;4994332;28;20555;-74
2022/11/24 09:40:48;;;;;;;2.50;1.10;;;10.20;99.90;;;;;;4994238;28;20508;-75
2022/11/24 09:43:33;;;;;;;1.87;1.17;;;9.90;99.90;;;;;;4993947;28;20209;-75
2022/11/24 09:46:17;;;;;;;1.00;0.80;;;9.80;99.90;;;;;;4994495;28;20424;-74
2022/11/24 09:48:47;;;;;;;1.60;0.73;;;10.00;99.90;;;;;;4994064;28;20402;-75
2022/11/24 09:51:14;;;;;;;1.27;0.77;;;9.90;99.90;;;;;;4994354;28;20384;-72
2022/11/24 09:53:47;;;;;;;2.03;1.00;;;9.80;99.90;;;;;;4993709;28;20990;-76
2022/11/24 09:56:32;;;;;;;2.63;0.93;;;9.90;99.90;;;;;;4993762;28;20412;-78
2022/11/24 09:59:14;;;;;;;2.60;1.60;;;10.10;99.90;;;;;;4993686;28;20775;-76
2022/11/24 10:01:41;;;;;;;1.77;0.77;;;10.00;99.90;;;;;;4995217;28;20478;-79
2022/11/24 10:04:26;;;;;;;1.20;0.90;;;10.00;99.90;;;;;;4996162;28;20782;-77
2022/11/24 10:07:10;;;;;;;2.00;1.17;;;10.10;99.90;;;;;;4993960;28;20445;-75
2022/11/24 10:09:51;;;;;;;3.47;1.10;;;10.30;99.90;;;;;;4993696;28;20393;-75
2022/11/24 10:12:39;;;;;;;1.70;0.60;;;10.50;99.90;;;;;;4994397;28;20762;-77
2022/11/24 10:15:41;;;;;;;1.10;0.70;;;10.80;99.90;;;;;;4993212;28;20806;-76
2022/11/24 10:18:31;;;;;;;1.30;0.80;;;10.80;99.90;;;;;;4992727;28;20434;-75
2022/11/24 10:21:12;;;;;;;1.07;0.70;;;11.20;99.90;;;;;;4993111;28;20914;-75
2022/11/24 10:23:47;;;;;;;0.90;0.70;;;;;;;;;;4992154;28;20447;-74
2022/11/24 10:26:18;;;;;;;2.60;0.80;;;;;;;;;;4975700;28;20910;-75
2022/11/24 10:28:49;;;;;;;1.97;0.90;;;;;;;;;;4993087;28;20404;-75
2022/11/24 10:31:21;;;;;;;1.03;0.70;;;;;;;;;;4992883;28;20390;-73
2022/11/24 10:33:47;;;;;;;1.63;0.70;;;;;;;;;;4992703;28;20427;-73
2022/11/24 10:36:18;;;;;;;3.03;0.93;;;;;;;;;;4992857;28;20424;-74
2022/11/24 10:38:47;;;;;;;1.30;1.10;;;;;;;;;;4994332;28;20430;-76
2022/11/24 10:41:16;;;;;;;2.00;1.77;;;;;;;;;;4993281;28;20399;-73
2022/11/24 10:43:42;;;;;;;0.90;0.70;;;;;;;;;;4992253;28;20458;-74
2022/11/24 10:46:15;;;;;;;1.97;0.87;;;;;;;;;;4992585;28;20400;-75
2022/11/24 10:48:45;;;;;;;1.57;1.00;;;;;;;;;;4993196;28;20436;-74
2022/11/24 10:51:29;;;;;;;1.70;0.90;;;;;;;;;;4992696;28;20455;-76
2022/11/24 10:53:59;;;;;;;1.40;0.90;;;;;;;;;;4992738;28;20510;-74
2022/11/24 10:56:25;;;;;;;2.10;0.90;;;;;;;;;;4992853;28;20536;-74
2022/11/24 10:58:51;;;;;;;1.40;1.10;;;;;;;;;;4991530;28;20416;-75
2022/11/24 11:01:17;;;;;;;2.70;1.17;;;;;;;;;;4992956;28;20451;-76
2022/11/24 11:03:48;;;;;;;2.30;1.20;;;;;;;;;;4992556;28;20428;-77
2022/11/24 11:06:28;;;;;;;3.70;1.00;;;;;;;;;;4993567;28;20860;-76
2022/11/24 11:09:06;;;;;;;3.50;1.07;;;;;;;;;;4993894;28;20410;-76
2022/11/24 11:11:33;;;;;;;2.07;0.90;;;;;;;;;;4993503;28;20446;-76
2022/11/24 11:14:03;;;;;;;1.10;0.70;;;;;;;;;;4992824;28;20427;-76
2022/11/24 11:16:32;;;;;;;1.60;0.90;;;;;;;;;;4992066;28;20584;-77
2022/11/24 11:19:00;;;;;;;2.30;0.90;;;;;;;;;;4992434;28;20399;-76
2022/11/24 11:21:37;;;;;;;4.00;3.47;;;;;;;;;;4993149;28;20491;-74
2022/11/24 11:24:23;;;;;;;2.43;1.70;;;;;;;;;;4992646;28;20477;-74
2022/11/24 11:26:58;;;;;;;1.20;1.00;;;;;;;;;;4995245;28;20819;-76
2022/11/24 11:29:26;;;;;;;2.80;1.40;;;;;;;;;;4996321;28;20411;-76
2022/11/24 11:31:59;;;;;;;1.80;0.80;;;;;;;;;;4978956;28;20422;-75
2022/11/24 11:34:25;;;;;;;2.10;0.70;;;;;;;;;;4996451;28;20802;-76
2022/11/24 11:36:53;;;;;;;1.97;0.80;;;;;;;;;;4997038;28;20434;-77
2022/11/24 11:39:57;;;;;;;2.27;1.10;;;;;;;;;;4997536;28;20407;-77
2022/11/24 11:42:26;;;;;;;1.20;0.90;;;;;;;;;;4917468;29;20927;-77
2022/11/24 11:44:58;;;;;;;1.67;0.97;;;;;;;;;;4901572;29;20415;-75
2022/11/24 11:47:27;;;;;;;1.70;0.83;;;;;;;;;;4960151;28;20474;-76
2022/11/24 11:49:53;;;;;;;1.67;1.10;;;;;;;;;;4996008;28;20549;-74
2022/11/24 11:52:19;;;;;;;2.40;0.80;;;;;;;;;;4978246;28;20428;-74
2022/11/24 11:54:57;;;;;;;1.73;0.90;;;;;;;;;;4996030;28;20400;-75
2022/11/24 11:57:39;;;;;;;2.53;1.00;;;;;;;;;;4996008;28;20414;-77
2022/11/24 12:00:14;;;;;;;3.90;1.00;;;;;;;;;;4995584;28;20419;-73
2022/11/24 12:03:01;;;;;;;2.03;1.07;;;;;;;;;;4994453;28;20483;-73
2022/11/24 12:05:45;;;;;;;3.90;1.70;;;;;;;;;;4996797;28;20403;-79
2022/11/24 12:08:27;;;;;;;2.40;1.20;;;;;;;;;;4996346;28;20454;-76
2022/11/24 12:10:59;;;;;;;5.43;1.40;;;;;;;;;;4996179;28;20472;-77
2022/11/24 12:13:25;;;;;;;3.90;1.93;;;;;;;;;;4978695;28;20428;-75
2022/11/24 12:15:53;;;;;;;1.90;1.13;;;;;;;;;;4995916;28;20455;-76
2022/11/24 12:18:39;;;;;;;3.57;1.90;;;;;;;;;;4995449;28;20540;-77
2022/11/24 12:21:18;;;;;;;4.63;1.70;;;;;;;;;;4997659;28;20535;-77
2022/11/24 12:23:44;;;;;;;3.30;1.80;;;;;;;;;;4998000;28;20434;-74
2022/11/24 12:26:10;;;;;;;15.67;2.30;;;;;;;;;;4994817;28;20426;-77
2022/11/24 12:28:55;;;;;;;4.20;1.50;;;;;;;;;;4997424;28;20478;-77
2022/11/24 12:31:26;;;;;;;4.53;1.47;;;;;;;;;;4997468;28;20818;-76
2022/11/24 12:34:03;;;;;;;8.17;1.90;;;;;;;;;;4994676;28;20453;-75
2022/11/24 12:36:35;;;;;;;5.67;1.90;;;;;;;;;;4996229;28;20522;-76
2022/11/24 12:39:13;;;;;;;3.97;1.40;;;;;;;;;;4994680;28;20415;-76
2022/11/24 12:41:42;;;;;;;3.00;1.70;;;;;;;;;;4998346;28;20442;-76
2022/11/24 12:44:35;;;;;;;3.63;1.70;;;;;;;;;;4995807;28;20433;-75
2022/11/24 12:47:19;;;;;;;5.03;1.90;;;;;;;;;;4995478;28;20453;-75
2022/11/24 12:49:45;;;;;;;3.40;1.87;;;;;;;;;;4995586;28;20928;-75
2022/11/24 12:52:16;;;;;;;4.90;1.70;;;;;;;;;;4995701;28;20400;-74
2022/11/24 12:54:42;;;;;;;5.50;1.60;;;;;;;;;;4996069;28;20807;-76
2022/11/24 12:57:43;;;;;;;4.47;1.43;;;;;;;;;;4995887;28;20415;-75
2022/11/24 13:00:17;;;;;;;3.93;1.50;;;;;;;;;;4939420;29;20447;-76
2022/11/24 13:02:55;;;;;;;2.93;1.77;;;;;;;;;;4985510;28;20441;-75
2022/11/24 13:05:40;;;;;;;4.63;1.60;;;;;;;;;;4975355;28;20408;-76
2022/11/24 13:08:06;;;;;;;3.60;1.97;;;;;;;;;;4975986;28;20465;-75
2022/11/24 13:10:34;;;;;;;5.57;2.10;;;;;;;;;;4991868;28;20426;-75
2022/11/24 13:13:03;;;;;;;5.97;1.73;;;;;;;;;;4995954;28;20433;-75
2022/11/24 13:15:30;;;;;;;7.27;2.67;;;;;;;;;;4977966;28;20423;-76
2022/11/24 13:17:56;;;;;;;2.83;1.40;;;;;;;;;;4994321;28;20439;-76
2022/11/24 13:20:35;;;;;;;11.63;2.07;;;;;;;;;;4994775;28;20403;-75
2022/11/24 13:23:02;;;;;;;6.20;1.80;;;;;;;;;;4995076;28;20821;-75
2022/11/24 13:25:29;;;;;;;6.97;2.20;;;;;;;;;;4977551;28;20412;-75
2022/11/24 13:27:59;;;;;;;4.00;1.67;;;;;;;;;;4995345;28;20820;-75